Flight Track Log - Related Links

Times and Time Zones

All times are in EDT time to prevent confusion due to time zone crossing. See the AWE1287 flight status page for this flight to view local times or setup timezone preferences in your user account.

Time Position Orientation Groundspeed Altitude Reporting Facility
EDT Latitude Longitude Course Direction KTS MPH feet Rate Location/Type
Thu 06:21:17 PM 42.9500 -71.4333 270° West 146 168 1,300  Level KA90
Thu 06:22:05 PM 42.9833 -71.4167 20° North 192 221 2,500 1,680 Climbing KA90
Thu 06:22:32 PM 43.0106 -71.4036 19° North 242 278 3,400 3,034 Climbing Boston Center
Thu 06:23:00 PM 42.9333 -71.7879 270° West  Level FlightAware Approximate
Thu 06:23:32 PM 43.0506 -71.4683 310° West 213 245 6,900  Level Boston Center
Thu 06:24:00 PM 42.9500 -71.9041 270° West  Level FlightAware Approximate
Thu 06:24:32 PM 43.0722 -71.5703 286° West 223 257 10,800  Level Boston Center
Thu 06:25:00 PM 42.9500 -72.0229 270° West  Level FlightAware Approximate
Thu 06:25:32 PM 43.0689 -71.6842 268° West 284 327 12,300  Level Boston Center
Thu 06:26:00 PM 42.9501 -72.1417 270° West  Level FlightAware Approximate
Thu 06:26:32 PM 43.0636 -71.8319 267° West 353 406 14,900  Level Boston Center
Thu 06:28:32 PM 43.0522 -72.1303 267° West 404 465 18,500 1,594 Climbing Boston Center
Thu 06:29:44 PM 43.0506 -72.2925 269° West 404 465 20,000 682 Climbing Boston Center
Thu 06:30:44 PM 43.0486 -72.4400 269° West 399 459 20,000  Level Boston Center
Thu 06:31:44 PM 43.0358 -72.6047 264° West 412 474 20,000  Level Boston Center
Thu 06:32:56 PM 43.0208 -72.7781 263° West 428 493 20,000  Level Boston Center
Thu 06:33:56 PM 43.0119 -72.9739 267° West 428 493 20,000  Level Boston Center
Thu 06:34:56 PM 43.0089 -73.1272 268° West 433 498 20,000  Level Boston Center
Thu 06:35:56 PM 42.9911 -73.2858 261° West 433 498 20,000  Level Boston Center
Thu 06:36:56 PM 42.9169 -73.4464 238° Southwest 433 498 20,000  Level Boston Center
Thu 06:37:56 PM 42.8617 -73.5731 239° Southwest 433 498 20,000  Level Boston Center
Thu 06:38:56 PM 42.7956 -73.7106 237° Southwest 438 504 20,000  Level Boston Center
Thu 06:39:56 PM 42.7186 -73.8617 235° Southwest 443 510 20,000  Level Boston Center
Thu 06:41:08 PM 42.6417 -74.0236 237° Southwest 443 510 20,000  Level Boston Center
Thu 06:42:08 PM 42.5750 -74.1628 237° Southwest 438 504 20,000  Level Boston Center
Thu 06:43:08 PM 42.5083 -74.2961 236° Southwest 433 498 20,000  Level Boston Center
Thu 06:44:08 PM 42.4350 -74.4289 233° Southwest 438 504 20,000 -150 Level Boston Center
Thu 06:45:08 PM 42.3536 -74.5500 228° Southwest 438 504 19,700 -351 Descending Boston Center
Thu 06:46:59 PM 42.2078 -74.7689 228° Southwest 437 503 19,000 -247 Descending New York Center
Thu 06:47:58 PM 42.1289 -74.8897 229° Southwest 437 503 19,000  Level New York Center
Thu 06:48:58 PM 42.0561 -75.0025 229° Southwest 442 509 19,000  Level New York Center
Thu 06:50:00 PM 41.9664 -75.1278 226° Southwest 442 509 19,000  Level New York Center
Thu 06:50:59 PM 41.8672 -75.2161 214° Southwest 431 496 19,000 -500 Level New York Center
Thu 06:52:00 PM 41.7728 -75.2931 211° Southwest 424 488 18,000 -1,678 Descending New York Center
Thu 06:52:57 PM 41.6911 -75.3572 210° Southwest 402 463 15,700 -1,966 Descending New York Center
Thu 06:53:59 PM 41.6008 -75.4286 211° Southwest 393 452 14,100 -1,475 Descending New York Center
Thu 06:54:59 PM 41.5042 -75.5078 212° Southwest 382 440 12,700 -1,059 Descending New York Center
Thu 06:55:58 PM 41.4158 -75.5761 210° Southwest 376 433 12,000 -353 Descending New York Center
Thu 06:56:58 PM 41.3342 -75.6394 210° Southwest 381 438 12,000  Level New York Center
Thu 06:57:58 PM 41.2406 -75.6878 201° Southwest 368 423 12,000  Level New York Center
Thu 06:58:59 PM 41.1447 -75.6892 181° South 349 402 12,000 -252 Level New York Center
Thu 06:59:57 PM 41.0386 -75.6869 179° South 349 402 11,500 -545 Descending New York Center
Thu 07:01:00 PM 40.9489 -75.6886 181° South 349 402 10,900 -650 Descending New York Center
Thu 07:01:57 PM 40.8531 -75.6872 179° South 349 402 10,200 -462 Descending New York Center
Thu 07:02:57 PM 40.7511 -75.6853 179° South 349 402 10,000 -99 Descending New York Center
Thu 07:03:58 PM 40.6572 -75.6842 179° South 349 402 10,000  Level New York Center
Thu 07:04:57 PM 40.5792 -75.6594 166° South 343 395 10,000  Level New York Center
Thu 07:05:57 PM 40.5167 -75.5567 129° Southeast 312 359 10,000 -50 Level New York Center
Thu 07:06:58 PM 40.4703 -75.4689 125° Southeast 305 351 9,900 -787 Descending New York Center
Thu 07:07:59 PM 40.4119 -75.4103 143° Southeast 279 321 8,400 -1,412 Descending New York Center
Thu 07:08:57 PM 40.3489 -75.3733 156° South 270 311 7,100 -712 Descending New York Center
Thu 07:09:57 PM 40.2836 -75.3364 157° South 264 304 7,000 -49 Descending New York Center
Thu 07:10:59 PM 40.2142 -75.2967 156° South 269 310 7,000  Level New York Center
Thu 07:11:59 PM 40.1428 -75.2592 158° South 269 310 7,000 -150 Level New York Center
Thu 07:12:59 PM 40.0714 -75.2167 156° South 264 304 6,700 -438 Descending New York Center
Thu 07:13:35 PM 40.0333 -75.2000 161° South 220 253 6,300 -467 Descending Philadelphia TRACON
Thu 07:14:29 PM 39.9833 -75.1667 153° Southeast 210 242 6,000 -150 Descending Philadelphia TRACON
Thu 07:15:35 PM 39.9833 -75.1000 90° East 209 241 6,000  Level Philadelphia TRACON
Thu 07:16:29 PM 40.0000 -75.0333 72° East 211 243 6,000 -500 Level Philadelphia TRACON
Thu 07:17:35 PM 39.9833 -74.9667 108° East 209 241 5,000 -1,200 Descending Philadelphia TRACON
Thu 07:18:29 PM 39.9333 -74.9833 194° South 240 276 3,600 -1,556 Descending Philadelphia TRACON

Login

Don't have an account? Register now (free) for customized features, flight alerts, and more!